Time;durP1;ratioP1;P1;durP2;ratioP2;P2;SDS_P1;SDS_P2;PMS_P1;PMS_P2;Temp;Humidity;BMP_temperature;BMP_pressure;BME280_temperature;BME280_humidity;BME280_pressure;Samples;Min_cycle;Max_cycle;Signal;HPM_P1;HPM_P2
2022/10/22 00:01:18;;;;;;;13.00;9.93;;;12.10;99.90;;;;;;5052113;28;20048;-31
2022/10/22 00:03:45;;;;;;;14.75;11.55;;;12.10;99.90;;;;;;5049822;28;20055;-30
2022/10/22 00:06:11;;;;;;;12.88;10.73;;;12.10;99.90;;;;;;5052558;28;20036;-30
2022/10/22 00:08:37;;;;;;;13.52;10.65;;;12.10;99.90;;;;;;5051987;28;20067;-30
2022/10/22 00:11:11;;;;;;;15.88;12.05;;;12.20;99.90;;;;;;5050227;28;20116;-31
2022/10/22 00:13:37;;;;;;;15.95;11.45;;;12.20;99.90;;;;;;5048647;28;20048;-30
2022/10/22 00:16:03;;;;;;;12.10;10.80;;;12.20;99.90;;;;;;5052052;28;20049;-30
2022/10/22 00:18:29;;;;;;;16.58;12.00;;;12.20;99.90;;;;;;5070190;28;20094;-30
2022/10/22 00:20:55;;;;;;;12.40;11.13;;;12.20;99.90;;;;;;5056161;28;20043;-30
2022/10/22 00:23:21;;;;;;;15.23;11.93;;;12.20;99.90;;;;;;5053275;28;20418;-30
2022/10/22 00:25:46;;;;;;;13.32;11.38;;;12.20;99.90;;;;;;5047946;28;20043;-31
2022/10/22 00:28:13;;;;;;;12.27;10.98;;;12.20;99.90;;;;;;5053908;28;20032;-29
2022/10/22 00:30:39;;;;;;;15.70;11.95;;;12.20;99.90;;;;;;5054849;28;20036;-30
2022/10/22 00:33:05;;;;;;;15.68;12.48;;;12.20;99.90;;;;;;5039090;28;20048;-30
2022/10/22 00:35:32;;;;;;;17.25;13.73;;;12.20;99.90;;;;;;5081179;28;20071;-29
2022/10/22 00:37:57;;;;;;;13.45;10.55;;;12.20;99.90;;;;;;5061123;28;20036;-30
2022/10/22 00:40:23;;;;;;;15.00;12.75;;;12.20;99.90;;;;;;5054999;28;20039;-31
2022/10/22 00:42:49;;;;;;;14.98;12.50;;;12.30;99.90;;;;;;5049665;28;20504;-30
2022/10/22 00:45:23;;;;;;;16.73;12.73;;;12.20;99.90;;;;;;5052606;28;20116;-29
2022/10/22 00:47:54;;;;;;;17.42;12.63;;;12.20;99.90;;;;;;5056146;28;20033;-31
2022/10/22 00:50:23;;;;;;;17.42;12.98;;;12.20;99.90;;;;;;5055392;28;20075;-30
2022/10/22 00:52:49;;;;;;;15.93;12.55;;;12.20;99.90;;;;;;5055865;28;20394;-30
2022/10/22 00:55:16;;;;;;;20.23;14.50;;;12.20;99.90;;;;;;5055684;28;20427;-31
2022/10/22 00:57:42;;;;;;;20.25;14.27;;;12.30;99.90;;;;;;5053378;28;20082;-30
2022/10/22 01:00:09;;;;;;;15.70;13.00;;;12.30;99.90;;;;;;5055360;28;20515;-30
2022/10/22 01:02:34;;;;;;;16.20;12.88;;;12.30;99.90;;;;;;5053037;28;20093;-30
2022/10/22 01:05:01;;;;;;;16.13;13.27;;;12.30;99.90;;;;;;5050636;28;20037;-30
2022/10/22 01:07:26;;;;;;;17.02;12.90;;;12.30;99.90;;;;;;5052216;28;20029;-30
2022/10/22 01:10:07;;;;;;;17.73;13.45;;;12.30;99.90;;;;;;5054659;28;20032;-30
2022/10/22 01:12:50;;;;;;;13.55;12.05;;;12.30;99.90;;;;;;5052296;28;20040;-30
2022/10/22 01:15:41;;;;;;;22.77;12.63;;;12.30;99.90;;;;;;5050617;28;20044;-30
2022/10/22 01:18:32;;;;;;;17.00;12.18;;;12.20;99.90;;;;;;5052040;28;20123;-30
2022/10/22 01:21:03;;;;;;;13.70;11.50;;;12.20;99.90;;;;;;5071320;28;20073;-31
2022/10/22 01:23:40;;;;;;;14.88;11.55;;;12.20;99.90;;;;;;5073768;28;20067;-29
2022/10/22 01:26:53;;;;;;;16.00;12.38;;;12.20;99.90;;;;;;5055092;28;20032;-32
2022/10/22 01:29:52;;;;;;;17.55;12.55;;;12.10;99.90;;;;;;5022051;28;20047;-30
2022/10/22 01:32:24;;;;;;;14.98;11.73;;;12.20;99.90;;;;;;5039647;28;20051;-33
2022/10/22 01:35:03;;;;;;;13.93;11.65;;;12.20;99.90;;;;;;5055016;28;20346;-30
2022/10/22 01:37:31;;;;;;;15.13;12.48;;;12.20;99.90;;;;;;5054562;28;20037;-31
2022/10/22 01:39:59;;;;;;;17.88;12.80;;;12.10;99.90;;;;;;5055267;28;20036;-30
2022/10/22 01:42:25;;;;;;;14.90;12.15;;;12.20;99.90;;;;;;5054473;28;20123;-30
2022/10/22 01:44:51;;;;;;;17.05;12.82;;;12.20;99.90;;;;;;5054809;28;20485;-31
2022/10/22 01:47:41;;;;;;;16.88;12.15;;;12.20;99.90;;;;;;5054576;28;20028;-27
2022/10/22 01:50:45;;;;;;;15.20;12.80;;;12.20;99.90;;;;;;5038545;28;20056;-28
2022/10/22 01:53:20;;;;;;;15.88;12.57;;;12.20;99.90;;;;;;5050156;28;20072;-28
2022/10/22 01:56:15;;;;;;;13.93;11.88;;;12.20;99.90;;;;;;5055027;28;20124;-28
2022/10/22 01:58:53;;;;;;;21.55;13.55;;;12.20;99.90;;;;;;5047596;28;20051;-28
2022/10/22 02:01:30;;;;;;;17.55;13.23;;;12.20;99.90;;;;;;5054821;28;20051;-28
2022/10/22 02:04:06;;;;;;;15.80;12.07;;;12.20;99.90;;;;;;5053589;28;20087;-28
2022/10/22 02:06:34;;;;;;;17.20;12.32;;;12.20;99.90;;;;;;5031839;28;20037;-29
2022/10/22 02:09:01;;;;;;;17.45;13.35;;;12.20;99.90;;;;;;5054811;28;20045;-28
2022/10/22 02:11:27;;;;;;;14.90;11.15;;;12.20;99.90;;;;;;5054512;28;20090;-27
2022/10/22 02:13:58;;;;;;;14.40;11.85;;;12.30;99.90;;;;;;5054562;28;20032;-27
2022/10/22 02:16:37;;;;;;;12.77;11.40;;;12.30;99.90;;;;;;5072379;28;20036;-29
2022/10/22 02:19:26;;;;;;;14.70;11.45;;;12.30;99.90;;;;;;5047230;28;20033;-28
2022/10/22 02:21:53;;;;;;;16.60;11.30;;;12.30;99.90;;;;;;5054198;28;20037;-27
2022/10/22 02:24:20;;;;;;;13.10;11.63;;;12.20;99.90;;;;;;5067480;28;20040;-28
2022/10/22 02:27:02;;;;;;;15.82;12.57;;;12.20;99.90;;;;;;5037200;28;20045;-30
2022/10/22 02:29:38;;;;;;;16.42;12.95;;;12.20;99.90;;;;;;5046577;28;20107;-27
2022/10/22 02:32:08;;;;;;;15.13;13.18;;;12.20;99.90;;;;;;5054158;28;20111;-28
2022/10/22 02:34:34;;;;;;;14.82;12.25;;;12.20;99.90;;;;;;5036952;28;20066;-29
2022/10/22 02:37:02;;;;;;;19.73;12.98;;;12.20;99.90;;;;;;5046227;28;20044;-27
2022/10/22 02:39:30;;;;;;;16.23;12.73;;;12.20;99.90;;;;;;5052301;28;20111;-28
2022/10/22 02:41:56;;;;;;;13.85;10.88;;;12.10;99.90;;;;;;5053997;28;20563;-28
2022/10/22 02:44:23;;;;;;;13.15;11.63;;;12.10;99.90;;;;;;5054135;28;20485;-28
2022/10/22 02:46:49;;;;;;;16.58;13.82;;;12.00;99.90;;;;;;5054347;28;20082;-27
2022/10/22 02:49:15;;;;;;;15.77;12.70;;;12.00;99.90;;;;;;5053968;28;20389;-28
2022/10/22 02:51:41;;;;;;;19.88;12.48;;;12.00;99.90;;;;;;5052901;28;20033;-29
2022/10/22 02:54:07;;;;;;;15.95;12.93;;;12.00;99.90;;;;;;5053662;28;20055;-29
2022/10/22 02:56:33;;;;;;;20.10;14.43;;;12.00;99.90;;;;;;5054085;28;20393;-29
2022/10/22 02:58:58;;;;;;;15.52;13.60;;;12.00;99.90;;;;;;5053797;28;20036;-28
2022/10/22 03:01:24;;;;;;;16.42;12.98;;;12.00;99.90;;;;;;5036952;28;20490;-28
2022/10/22 03:03:50;;;;;;;17.88;14.68;;;11.90;99.90;;;;;;5036693;28;20076;-28
2022/10/22 03:06:16;;;;;;;17.02;14.70;;;12.00;99.90;;;;;;5052878;28;20406;-29
2022/10/22 03:08:42;;;;;;;19.45;15.40;;;12.00;99.90;;;;;;5054006;28;20043;-28
2022/10/22 03:11:08;;;;;;;17.95;14.70;;;12.00;99.90;;;;;;5046234;28;20485;-29
2022/10/22 03:13:34;;;;;;;15.60;13.40;;;12.00;99.90;;;;;;5053665;28;20036;-28
2022/10/22 03:15:59;;;;;;;20.20;14.13;;;12.00;99.90;;;;;;5057941;28;20052;-30
2022/10/22 03:18:25;;;;;;;15.63;13.30;;;12.00;99.90;;;;;;5052501;28;20032;-28
2022/10/22 03:21:01;;;;;;;19.05;13.77;;;12.00;99.90;;;;;;5052609;28;20378;-29
2022/10/22 03:23:27;;;;;;;15.85;12.85;;;11.90;99.90;;;;;;5035711;28;20045;-29
2022/10/22 03:25:52;;;;;;;17.48;14.48;;;11.90;99.90;;;;;;5053829;28;20490;-28
2022/10/22 03:28:18;;;;;;;18.70;14.02;;;11.80;99.90;;;;;;5052337;28;20391;-29
2022/10/22 03:30:44;;;;;;;18.90;14.68;;;11.90;99.90;;;;;;5044607;28;20115;-27
2022/10/22 03:33:10;;;;;;;19.17;14.65;;;11.80;99.90;;;;;;5053201;28;20428;-27
2022/10/22 03:35:42;;;;;;;17.30;13.40;;;11.80;99.90;;;;;;5052401;28;20028;-28
2022/10/22 03:38:08;;;;;;;20.97;15.20;;;11.80;99.90;;;;;;5044231;28;20491;-28
2022/10/22 03:40:34;;;;;;;17.45;13.60;;;11.80;99.90;;;;;;5046640;28;20048;-28
2022/10/22 03:43:00;;;;;;;22.45;14.15;;;11.80;99.90;;;;;;5050965;28;20363;-29
2022/10/22 03:45:25;;;;;;;16.30;12.07;;;11.90;99.90;;;;;;5052748;28;20505;-28
2022/10/22 03:47:51;;;;;;;19.67;15.75;;;11.80;99.90;;;;;;5053497;28;20036;-28
2022/10/22 03:50:17;;;;;;;20.23;14.35;;;11.80;99.90;;;;;;5048098;28;20040;-28
2022/10/22 03:52:43;;;;;;;19.27;15.02;;;11.80;99.90;;;;;;5056656;28;20037;-28
2022/10/22 03:55:09;;;;;;;20.05;14.75;;;11.80;99.90;;;;;;5056956;28;20512;-28
2022/10/22 03:57:35;;;;;;;20.60;14.30;;;11.80;99.90;;;;;;5049280;28;20070;-27
2022/10/22 04:00:01;;;;;;;20.40;15.23;;;11.80;99.90;;;;;;5057002;28;20466;-28
2022/10/22 04:02:26;;;;;;;18.05;15.63;;;11.80;99.90;;;;;;5056691;28;20037;-28
2022/10/22 04:04:52;;;;;;;18.52;13.80;;;11.80;99.90;;;;;;5056400;28;20028;-29
2022/10/22 04:07:18;;;;;;;19.63;14.85;;;11.80;99.90;;;;;;5056795;28;20134;-29
2022/10/22 04:09:43;;;;;;;20.40;14.65;;;11.80;99.90;;;;;;5056165;28;20032;-29
2022/10/22 04:12:09;;;;;;;21.50;14.55;;;11.80;99.90;;;;;;5056727;28;20283;-27
2022/10/22 04:14:35;;;;;;;22.73;16.77;;;11.70;99.90;;;;;;5056794;28;20071;-29
2022/10/22 04:17:03;;;;;;;22.48;15.23;;;11.70;99.90;;;;;;5040714;28;20044;-27
2022/10/22 04:19:28;;;;;;;19.90;14.65;;;11.80;99.90;;;;;;5057970;28;20442;-31
2022/10/22 04:21:57;;;;;;;20.92;14.50;;;11.70;99.90;;;;;;5057517;28;20095;-27
2022/10/22 04:24:23;;;;;;;21.85;15.02;;;11.70;99.90;;;;;;5052850;28;20040;-30
2022/10/22 04:26:49;;;;;;;18.95;14.40;;;11.70;99.90;;;;;;5056833;28;20107;-30
2022/10/22 04:29:15;;;;;;;19.48;13.73;;;11.70;99.90;;;;;;5049022;28;20040;-31
2022/10/22 04:31:40;;;;;;;18.52;13.35;;;11.60;99.90;;;;;;5052269;28;20074;-30
2022/10/22 04:34:06;;;;;;;16.55;12.60;;;11.50;99.90;;;;;;5065594;28;20047;-31
2022/10/22 04:36:33;;;;;;;14.77;13.15;;;11.50;99.90;;;;;;5057612;28;20041;-30
2022/10/22 04:39:00;;;;;;;13.50;11.98;;;11.40;99.90;;;;;;5055509;28;20206;-31
2022/10/22 04:41:31;;;;;;;14.50;11.88;;;11.40;99.90;;;;;;5058066;28;20032;-30
2022/10/22 04:43:58;;;;;;;13.95;12.13;;;11.30;99.90;;;;;;5048100;28;20118;-30
2022/10/22 04:46:26;;;;;;;14.68;12.05;;;11.30;99.90;;;;;;5061338;28;20036;-30
2022/10/22 04:48:52;;;;;;;15.57;12.93;;;11.20;99.90;;;;;;5055684;28;20440;-31
2022/10/22 04:51:19;;;;;;;22.30;15.88;;;11.30;99.90;;;;;;5054007;28;20041;-29
2022/10/22 04:53:46;;;;;;;15.00;12.70;;;11.30;99.90;;;;;;5050469;28;20119;-31
2022/10/22 04:56:20;;;;;;;17.63;14.05;;;11.20;99.90;;;;;;5073800;28;20528;-30
2022/10/22 04:58:57;;;;;;;25.77;17.42;;;11.30;99.90;;;;;;5049328;28;20481;-31
2022/10/22 05:01:29;;;;;;;22.13;15.65;;;11.30;99.90;;;;;;5054112;28;20044;-30
2022/10/22 05:03:59;;;;;;;27.70;19.23;;;11.40;99.90;;;;;;5054261;28;20044;-31
2022/10/22 05:06:26;;;;;;;29.90;19.85;;;11.40;99.90;;;;;;5055318;28;20107;-30
2022/10/22 05:08:54;;;;;;;26.73;17.90;;;11.50;99.90;;;;;;5043231;28;20053;-31
2022/10/22 05:11:23;;;;;;;31.02;19.80;;;11.60;99.90;;;;;;5054932;28;20032;-31
2022/10/22 05:13:48;;;;;;;25.42;18.02;;;11.70;99.90;;;;;;5052037;28;20044;-30
2022/10/22 05:16:14;;;;;;;28.20;18.30;;;11.70;99.90;;;;;;5058507;28;20040;-30
2022/10/22 05:18:42;;;;;;;26.10;18.80;;;11.70;99.90;;;;;;5056245;28;20057;-31
2022/10/22 05:21:10;;;;;;;22.83;17.05;;;11.80;99.90;;;;;;5056243;28;20089;-30
2022/10/22 05:23:36;;;;;;;27.17;16.90;;;11.80;99.90;;;;;;5045682;28;20040;-31
2022/10/22 05:26:07;;;;;;;26.65;17.40;;;11.80;99.90;;;;;;5040474;28;20037;-30
2022/10/22 05:28:34;;;;;;;26.08;17.08;;;11.90;99.90;;;;;;5056970;28;20106;-30
2022/10/22 05:31:00;;;;;;;22.60;16.63;;;11.90;99.90;;;;;;5055663;28;20048;-30
2022/10/22 05:33:27;;;;;;;23.92;16.92;;;11.90;99.90;;;;;;5058774;28;20036;-30
2022/10/22 05:35:53;;;;;;;24.13;16.67;;;12.00;99.90;;;;;;5043464;28;20044;-30
2022/10/22 05:38:20;;;;;;;23.02;16.42;;;12.00;99.90;;;;;;5057271;28;20167;-30
2022/10/22 05:40:46;;;;;;;23.10;16.40;;;12.00;99.90;;;;;;5054297;28;20033;-31
2022/10/22 05:43:11;;;;;;;24.42;15.38;;;12.10;99.90;;;;;;5059106;28;20033;-30
2022/10/22 05:45:41;;;;;;;21.45;15.00;;;12.10;99.90;;;;;;5059551;28;20038;-31
2022/10/22 05:48:08;;;;;;;21.30;15.13;;;12.10;99.90;;;;;;5054261;28;20028;-29
2022/10/22 05:50:38;;;;;;;26.08;15.20;;;12.10;99.90;;;;;;5055345;28;20137;-30
2022/10/22 05:53:04;;;;;;;23.38;15.23;;;12.10;99.90;;;;;;5057529;28;20485;-30
2022/10/22 05:55:39;;;;;;;21.48;14.25;;;12.20;99.90;;;;;;5079334;28;20139;-30
2022/10/22 05:58:05;;;;;;;17.35;13.70;;;12.20;99.90;;;;;;5051614;28;20094;-32
2022/10/22 06:00:33;;;;;;;21.38;14.05;;;12.30;99.90;;;;;;5055290;28;20056;-31
2022/10/22 06:02:59;;;;;;;21.75;14.23;;;12.30;99.90;;;;;;5058471;28;20287;-29
2022/10/22 06:05:24;;;;;;;18.00;14.25;;;12.40;99.90;;;;;;5052929;28;20037;-30
2022/10/22 06:07:50;;;;;;;20.10;14.05;;;12.30;99.90;;;;;;5063034;28;20044;-31
2022/10/22 06:10:19;;;;;;;20.30;13.98;;;12.40;99.90;;;;;;5062956;28;20397;-31
2022/10/22 06:12:48;;;;;;;20.80;13.68;;;12.40;99.90;;;;;;5055812;28;20064;-30
2022/10/22 06:15:17;;;;;;;18.73;13.70;;;12.40;99.90;;;;;;5056815;28;20570;-31
2022/10/22 06:17:47;;;;;;;21.08;14.45;;;12.40;99.90;;;;;;5053340;28;20120;-30
2022/10/22 06:20:13;;;;;;;22.58;13.93;;;12.40;99.90;;;;;;5056274;28;20032;-29
2022/10/22 06:22:39;;;;;;;18.33;13.63;;;12.40;99.90;;;;;;5056349;28;20101;-31
2022/10/22 06:25:07;;;;;;;17.77;13.50;;;12.50;99.90;;;;;;5056110;28;20511;-30
2022/10/22 06:27:33;;;;;;;22.08;13.13;;;12.50;99.90;;;;;;5052414;28;20033;-31
2022/10/22 06:29:59;;;;;;;20.42;13.43;;;12.50;99.90;;;;;;5057616;28;20044;-30
2022/10/22 06:32:25;;;;;;;15.50;12.45;;;12.50;99.90;;;;;;5061642;28;20044;-32
2022/10/22 06:34:51;;;;;;;20.55;13.15;;;12.50;99.90;;;;;;5056987;28;20098;-30
2022/10/22 06:37:22;;;;;;;19.92;12.23;;;12.60;99.90;;;;;;5138426;27;20118;-31
2022/10/22 06:39:47;;;;;;;18.63;13.00;;;12.60;99.90;;;;;;5101105;28;20048;-28
2022/10/22 06:42:13;;;;;;;17.77;12.95;;;12.60;99.90;;;;;;5088122;28;20037;-30
2022/10/22 06:44:39;;;;;;;17.50;12.65;;;12.70;99.90;;;;;;5087853;28;20115;-29
2022/10/22 06:47:04;;;;;;;17.10;11.80;;;12.70;99.90;;;;;;5064771;28;20447;-29
2022/10/22 06:49:30;;;;;;;20.42;13.15;;;12.70;99.90;;;;;;5088955;28;20031;-29
2022/10/22 06:51:56;;;;;;;19.23;13.60;;;12.80;99.90;;;;;;5104353;28;20107;-29
2022/10/22 06:54:22;;;;;;;16.45;12.70;;;12.80;99.90;;;;;;5089794;28;20370;-30
2022/10/22 06:56:48;;;;;;;17.42;11.90;;;12.80;99.90;;;;;;5084849;28;20037;-28
2022/10/22 06:59:13;;;;;;;19.38;12.82;;;12.90;99.90;;;;;;5090850;28;20058;-30
2022/10/22 07:01:39;;;;;;;17.52;12.23;;;12.90;99.90;;;;;;5096381;28;20032;-29
2022/10/22 07:04:05;;;;;;;17.27;12.20;;;12.90;99.90;;;;;;5091335;28;20033;-33
2022/10/22 07:06:36;;;;;;;18.23;11.48;;;12.90;99.90;;;;;;5089279;28;20043;-34
2022/10/22 07:09:02;;;;;;;14.10;11.00;;;13.00;99.90;;;;;;5093214;28;20047;-29
2022/10/22 07:11:35;;;;;;;15.60;11.15;;;13.00;99.90;;;;;;5096747;28;20040;-29
2022/10/22 07:14:01;;;;;;;18.23;11.07;;;13.10;99.90;;;;;;5089014;28;20073;-28
2022/10/22 07:16:27;;;;;;;16.13;10.73;;;13.20;99.90;;;;;;5097001;28;20110;-29
2022/10/22 07:18:53;;;;;;;17.80;10.80;;;13.20;99.90;;;;;;5085978;28;20401;-30
2022/10/22 07:21:21;;;;;;;16.98;11.98;;;13.20;99.90;;;;;;5102605;28;20043;-29
2022/10/22 07:23:48;;;;;;;17.30;11.82;;;13.30;99.90;;;;;;5087014;28;21294;-33
2022/10/22 07:26:16;;;;;;;17.08;11.25;;;13.40;99.90;;;;;;5088559;28;20097;-31
2022/10/22 07:28:42;;;;;;;16.23;10.77;;;13.40;99.90;;;;;;5100206;28;20463;-30
2022/10/22 07:31:09;;;;;;;14.20;11.25;;;13.50;99.90;;;;;;5096410;28;20032;-31
2022/10/22 07:33:36;;;;;;;12.88;11.13;;;13.60;99.90;;;;;;5086143;28;20122;-29
2022/10/22 07:36:05;;;;;;;18.05;11.57;;;13.70;99.90;;;;;;5107660;28;20032;-29
2022/10/22 07:38:31;;;;;;;15.48;11.40;;;13.70;99.90;;;;;;5091762;28;20366;-30
2022/10/22 07:40:57;;;;;;;14.05;10.70;;;13.80;99.90;;;;;;5103116;28;20035;-29
2022/10/22 07:43:24;;;;;;;15.23;11.20;;;13.80;99.90;;;;;;5082826;28;20079;-30
2022/10/22 07:45:50;;;;;;;17.95;10.73;;;13.80;99.90;;;;;;5082316;28;20072;-30
2022/10/22 07:48:16;;;;;;;13.50;10.55;;;13.90;99.90;;;;;;5082004;28;20480;-30
2022/10/22 07:50:42;;;;;;;12.48;8.98;;;13.90;99.90;;;;;;5073829;28;20039;-31
2022/10/22 07:53:08;;;;;;;15.85;9.35;;;13.90;99.90;;;;;;5072946;28;20040;-30
2022/10/22 07:55:34;;;;;;;12.48;9.80;;;13.90;99.90;;;;;;5074660;28;20032;-30
2022/10/22 07:58:01;;;;;;;14.02;9.65;;;13.90;99.90;;;;;;5084194;28;20484;-30
2022/10/22 08:00:26;;;;;;;13.13;8.82;;;13.90;99.90;;;;;;5069291;28;20037;-31
2022/10/22 08:02:52;;;;;;;15.63;11.05;;;13.90;99.90;;;;;;5088745;28;20035;-30
2022/10/22 08:05:18;;;;;;;15.05;10.57;;;13.90;99.90;;;;;;5079672;28;20097;-30
2022/10/22 08:07:44;;;;;;;14.88;9.45;;;13.80;99.90;;;;;;5076147;28;20507;-31
2022/10/22 08:10:11;;;;;;;16.98;9.25;;;13.80;99.90;;;;;;5073420;28;20036;-31
2022/10/22 08:12:37;;;;;;;16.02;9.77;;;13.80;99.90;;;;;;5077162;28;20161;-30
2022/10/22 08:15:03;;;;;;;14.25;8.90;;;13.80;99.90;;;;;;5070827;28;20468;-29
2022/10/22 08:17:29;;;;;;;14.20;9.05;;;13.80;99.90;;;;;;5082249;28;20064;-30
2022/10/22 08:19:54;;;;;;;11.43;8.55;;;13.90;99.90;;;;;;5077782;28;20056;-30
2022/10/22 08:22:20;;;;;;;12.65;8.98;;;14.10;99.90;;;;;;5073319;28;20038;-30
2022/10/22 08:24:46;;;;;;;11.85;9.43;;;14.20;99.90;;;;;;5074163;28;20036;-31
2022/10/22 08:27:12;;;;;;;14.23;9.05;;;14.40;99.90;;;;;;5072787;28;20043;-30
2022/10/22 08:29:38;;;;;;;12.77;8.23;;;14.40;99.90;;;;;;5081364;28;20036;-31
2022/10/22 08:32:04;;;;;;;17.38;8.20;;;14.50;99.90;;;;;;5080925;28;20458;-31
2022/10/22 08:34:30;;;;;;;10.43;7.25;;;14.50;99.90;;;;;;5084887;28;20051;-31
2022/10/22 08:36:56;;;;;;;11.05;8.20;;;14.60;99.90;;;;;;5088687;28;20040;-31
2022/10/22 08:39:21;;;;;;;11.23;7.60;;;15.00;99.90;;;;;;5077589;28;20508;-31
2022/10/22 08:42:18;;;;;;;11.32;7.05;;;15.60;99.90;;;;;;5078209;28;20393;-31
2022/10/22 08:45:15;;;;;;;10.93;5.78;;;16.30;99.90;;;;;;5077250;28;20036;-32
2022/10/22 08:48:13;;;;;;;8.07;5.57;;;16.90;99.90;;;;;;5074367;28;20040;-31
2022/10/22 08:50:44;;;;;;;8.30;6.60;;;17.30;99.90;;;;;;5079932;28;20044;-31
2022/10/22 08:53:24;;;;;;;7.47;5.00;;;17.60;99.90;;;;;;5079021;28;20085;-32
2022/10/22 08:55:52;;;;;;;7.68;5.20;;;17.80;99.90;;;;;;5067172;28;20040;-31
2022/10/22 08:58:31;;;;;;;9.05;6.05;;;18.00;99.90;;;;;;5071636;28;20043;-31
2022/10/22 09:01:09;;;;;;;11.35;5.78;;;18.20;99.90;;;;;;5072886;28;20032;-33
2022/10/22 09:04:03;;;;;;;11.32;5.30;;;18.40;99.90;;;;;;5064047;28;20029;-30
2022/10/22 09:06:32;;;;;;;10.25;5.32;;;18.80;99.90;;;;;;5086272;28;20051;-32
2022/10/22 09:09:00;;;;;;;9.27;4.78;;;19.10;99.90;;;;;;5068812;28;20037;-32
2022/10/22 09:11:35;;;;;;;9.32;5.53;;;19.40;99.90;;;;;;5078067;28;20126;-32
2022/10/22 09:14:03;;;;;;;5.20;4.38;;;19.50;99.90;;;;;;5083942;28;20089;-32
2022/10/22 09:16:34;;;;;;;8.93;4.50;;;19.70;99.90;;;;;;5069323;28;20037;-31
2022/10/22 09:19:28;;;;;;;9.48;4.80;;;19.60;99.90;;;;;;5077395;28;20507;-32
2022/10/22 09:21:54;;;;;;;9.02;4.25;;;19.30;99.90;;;;;;5069853;28;20478;-30
2022/10/22 09:24:32;;;;;;;7.50;4.40;;;19.20;99.90;;;;;;5071819;28;20036;-30
2022/10/22 09:26:59;;;;;;;8.50;4.80;;;19.20;99.90;;;;;;5092222;28;20379;-30
2022/10/22 09:29:32;;;;;;;11.73;4.38;;;18.90;99.90;;;;;;5083441;28;20032;-33
2022/10/22 09:31:58;;;;;;;7.00;4.00;;;18.70;99.90;;;;;;5069472;28;20505;-32
2022/10/22 09:34:23;;;;;;;10.35;6.30;;;18.40;99.90;;;;;;5072545;28;20141;-31
2022/10/22 09:37:02;;;;;;;10.52;4.50;;;18.00;99.90;;;;;;5084289;28;20040;-31
2022/10/22 09:39:37;;;;;;;10.40;5.75;;;17.90;99.90;;;;;;5095642;28;20037;-32
2022/10/22 09:42:04;;;;;;;13.13;5.90;;;17.70;99.90;;;;;;5079475;28;20028;-30
2022/10/22 09:44:33;;;;;;;10.02;4.65;;;17.50;99.90;;;;;;5074349;28;20033;-30
2022/10/22 09:47:04;;;;;;;13.35;5.57;;;17.30;99.90;;;;;;5072881;28;20033;-29
2022/10/22 09:49:33;;;;;;;10.05;4.55;;;17.20;99.90;;;;;;5079622;28;20141;-31
2022/10/22 09:52:01;;;;;;;8.55;5.00;;;17.00;99.90;;;;;;5071537;28;20046;-32
2022/10/22 09:54:38;;;;;;;11.52;4.47;;;16.90;99.90;;;;;;5071158;28;20044;-31
2022/10/22 09:57:13;;;;;;;11.23;4.47;;;16.80;99.90;;;;;;5070336;28;20036;-32
2022/10/22 09:59:41;;;;;;;10.27;4.65;;;16.70;99.90;;;;;;5060681;28;20095;-30
2022/10/22 10:02:27;;;;;;;12.13;5.43;;;16.60;99.90;;;;;;5083784;28;20512;-31
2022/10/22 10:04:56;;;;;;;9.75;4.60;;;16.60;99.90;;;;;;5071827;28;20058;-31
2022/10/22 10:07:25;;;;;;;10.50;5.78;;;16.50;99.90;;;;;;5078887;28;20048;-29
2022/10/22 10:09:54;;;;;;;10.77;4.20;;;16.50;99.90;;;;;;5062528;28;20106;-30
2022/10/22 10:12:34;;;;;;;9.30;4.30;;;16.50;99.90;;;;;;5084520;28;20424;-32
2022/10/22 10:15:09;;;;;;;8.45;4.63;;;16.40;99.90;;;;;;5070869;28;20036;-31
2022/10/22 10:17:50;;;;;;;7.88;4.10;;;16.40;99.90;;;;;;5066188;28;20490;-30
2022/10/22 10:20:25;;;;;;;9.95;4.20;;;16.30;99.90;;;;;;5076234;28;20478;-30
2022/10/22 10:23:26;;;;;;;14.38;4.55;;;16.30;99.90;;;;;;5082413;28;20032;-30
2022/10/22 10:26:19;;;;;;;8.77;3.88;;;16.30;99.90;;;;;;5059641;28;20033;-31
2022/10/22 10:29:10;;;;;;;8.38;4.10;;;16.30;99.90;;;;;;5070825;28;20040;-31
2022/10/22 10:31:39;;;;;;;10.35;4.38;;;16.30;99.90;;;;;;5064775;28;20040;-31
2022/10/22 10:34:14;;;;;;;10.20;4.78;;;16.30;99.90;;;;;;5068873;28;20040;-29
2022/10/22 10:36:58;;;;;;;15.65;5.50;;;16.30;99.90;;;;;;5062745;28;20436;-29
2022/10/22 10:39:27;;;;;;;11.02;5.55;;;16.30;99.90;;;;;;5062584;28;20071;-31
2022/10/22 10:42:44;;;;;;;9.90;4.63;;;16.40;99.90;;;;;;5065682;28;20032;-30
2022/10/22 10:45:36;;;;;;;10.88;4.80;;;16.30;99.90;;;;;;5043865;28;20069;-30
2022/10/22 10:48:05;;;;;;;7.57;4.68;;;16.40;99.90;;;;;;5049347;28;20068;-30
2022/10/22 10:51:02;;;;;;;7.50;4.05;;;16.40;99.90;;;;;;5055605;28;20052;-30
2022/10/22 10:53:46;;;;;;;10.85;4.55;;;16.50;99.90;;;;;;5064075;28;20037;-30
2022/10/22 10:56:12;;;;;;;13.30;4.85;;;16.50;99.90;;;;;;5065869;28;20040;-30
2022/10/22 10:58:40;;;;;;;7.00;5.00;;;16.50;99.90;;;;;;5067105;28;20146;-30
2022/10/22 11:01:23;;;;;;;10.68;5.15;;;16.50;99.90;;;;;;5073523;28;20032;-31
2022/10/22 11:04:28;;;;;;;9.93;5.15;;;16.50;99.90;;;;;;5066308;28;20065;-30
2022/10/22 11:06:59;;;;;;;7.78;4.38;;;16.40;99.90;;;;;;5067086;28;20033;-31
2022/10/22 11:09:32;;;;;;;13.40;5.53;;;16.40;99.90;;;;;;5062079;28;20638;-30
2022/10/22 11:12:33;;;;;;;10.35;6.38;;;16.40;99.90;;;;;;5058848;28;20041;-31
2022/10/22 11:15:08;;;;;;;12.27;8.02;;;16.50;99.90;;;;;;5055808;28;20098;-29
2022/10/22 11:17:45;;;;;;;12.18;6.97;;;16.40;99.90;;;;;;5068427;28;20043;-32
2022/10/22 11:20:20;;;;;;;16.13;11.93;;;16.40;99.90;;;;;;5061550;28;20033;-30
2022/10/22 11:23:15;;;;;;;12.73;9.05;;;16.40;99.90;;;;;;5064611;28;20032;-31
2022/10/22 11:25:45;;;;;;;14.43;6.38;;;16.50;99.90;;;;;;5082550;28;20527;-31
2022/10/22 11:28:36;;;;;;;11.05;7.25;;;16.60;99.90;;;;;;5070272;28;20055;-31
2022/10/22 11:31:15;;;;;;;10.15;6.15;;;16.70;99.90;;;;;;5062375;28;20494;-30
2022/10/22 11:34:01;;;;;;;10.57;8.00;;;16.60;99.90;;;;;;5066671;28;20044;-30
2022/10/22 11:36:29;;;;;;;8.85;6.75;;;16.60;99.90;;;;;;5057710;28;20045;-34
2022/10/22 11:38:55;;;;;;;14.70;8.35;;;16.60;99.90;;;;;;5075843;28;20024;-31
2022/10/22 11:41:29;;;;;;;11.90;6.93;;;16.60;99.90;;;;;;5082080;28;20039;-30
2022/10/22 11:44:01;;;;;;;13.35;7.53;;;16.60;99.90;;;;;;5093951;28;20033;-31
2022/10/22 11:46:38;;;;;;;8.25;6.40;;;16.60;99.90;;;;;;5072680;28;20053;-30
2022/10/22 11:49:13;;;;;;;10.40;6.40;;;16.60;99.90;;;;;;5080226;28;20078;-31
2022/10/22 11:51:41;;;;;;;10.70;6.40;;;16.60;99.90;;;;;;5076511;28;20039;-30
2022/10/22 11:54:44;;;;;;;9.95;6.63;;;16.60;99.90;;;;;;5070060;28;20032;-31
2022/10/22 11:57:18;;;;;;;10.23;6.63;;;16.60;99.90;;;;;;5083537;28;20040;-33
2022/10/22 11:59:51;;;;;;;14.73;7.50;;;16.60;99.90;;;;;;5069351;28;20509;-30
2022/10/22 12:02:35;;;;;;;;;;;16.60;99.90;;;;;;5071473;28;20086;-30
2022/10/22 12:05:20;;;;;;;;;;;16.70;99.90;;;;;;5087350;28;19916;-31
2022/10/22 12:07:45;;;;;;;;;;;17.00;99.90;;;;;;5084360;28;19920;-31
2022/10/22 12:10:28;;;;;;;14.80;9.50;;;17.30;99.90;;;;;;5066998;28;20341;-30
2022/10/22 12:13:04;;;;;;;10.65;6.93;;;17.60;99.90;;;;;;5064675;28;20065;-30
2022/10/22 12:15:29;;;;;;;9.75;7.47;;;17.80;99.90;;;;;;5068506;28;20725;-32
2022/10/22 12:18:00;;;;;;;11.82;7.13;;;17.80;99.90;;;;;;5069863;28;20058;-31
2022/10/22 12:20:27;;;;;;;8.88;6.32;;;17.80;99.90;;;;;;5073658;28;20032;-30
2022/10/22 12:22:54;;;;;;;7.57;6.20;;;17.80;99.90;;;;;;5066983;28;20482;-31
2022/10/22 12:25:28;;;;;;;8.48;6.82;;;17.80;99.90;;;;;;5072415;28;20044;-30
2022/10/22 12:27:57;;;;;;;9.65;6.28;;;17.80;99.90;;;;;;5085115;28;20123;-30
2022/10/22 12:30:26;;;;;;;10.23;6.32;;;17.80;99.90;;;;;;5074603;28;20037;-30
2022/10/22 12:32:59;;;;;;;12.38;6.35;;;17.80;99.90;;;;;;5070175;28;20093;-30
2022/10/22 12:35:28;;;;;;;9.13;5.90;;;17.80;99.90;;;;;;5075919;28;20067;-32
2022/10/22 12:38:11;;;;;;;11.73;5.50;;;17.80;99.90;;;;;;5072060;28;20047;-32
2022/10/22 12:40:38;;;;;;;;;;;17.70;99.90;;;;;;5073688;28;20024;-31
2022/10/22 12:43:14;;;;;;;9.38;4.55;;;17.50;99.90;;;;;;5054811;28;19924;-32
2022/10/22 12:45:43;;;;;;;9.90;5.20;;;17.40;99.90;;;;;;5069550;28;20040;-32
2022/10/22 12:48:33;;;;;;;8.35;4.65;;;17.30;99.90;;;;;;5068847;28;20037;-30
2022/10/22 12:51:01;;;;;;;10.57;4.88;;;17.30;99.90;;;;;;5069416;28;20573;-30
2022/10/22 12:53:34;;;;;;;6.70;4.47;;;17.20;99.90;;;;;;5064175;28;20048;-31